Time;durP1;ratioP1;P1;durP2;ratioP2;P2;SDS_P1;SDS_P2;PMS_P1;PMS_P2;Temp;Humidity;BMP_temperature;BMP_pressure;BME280_temperature;BME280_humidity;BME280_pressure;Samples;Min_cycle;Max_cycle;Signal;HPM_P1;HPM_P2
2023/09/19 00:00:59;;;;;;;13.30;12.87;;;18.50;99.90;;;;;;4975163;28;20479;-81
2023/09/19 00:03:53;;;;;;;13.60;13.20;;;18.50;99.90;;;;;;4984598;28;20530;-81
2023/09/19 00:06:47;;;;;;;13.50;13.00;;;18.60;1.00;;;;;;4984905;28;20462;-79
2023/09/19 00:09:15;;;;;;;13.50;13.07;;;18.60;1.00;;;;;;4982206;28;20475;-83
2023/09/19 00:11:44;;;;;;;13.70;13.30;;;18.50;99.90;;;;;;4986348;28;20463;-82
2023/09/19 00:14:14;;;;;;;13.63;13.20;;;18.50;1.00;;;;;;4987833;28;20462;-82
2023/09/19 00:16:54;;;;;;;13.20;12.90;;;18.50;99.90;;;;;;4984478;28;20510;-83
2023/09/19 00:19:38;;;;;;;13.60;13.20;;;18.50;99.90;;;;;;4980298;28;21330;-81
2023/09/19 00:22:32;;;;;;;13.50;13.20;;;18.40;1.00;;;;;;4987629;28;20461;-81
2023/09/19 00:25:32;;;;;;;13.50;13.20;;;18.50;1.00;;;;;;4984488;28;20791;-83
2023/09/19 00:28:01;;;;;;;13.10;12.80;;;18.50;99.90;;;;;;4931362;29;20530;-82
2023/09/19 00:31:01;;;;;;;13.30;13.00;;;18.60;99.90;;;;;;4984446;23;20503;-82
2023/09/19 00:33:31;;;;;;;13.23;12.83;;;18.60;99.90;;;;;;4989311;28;20843;-85
2023/09/19 00:35:59;;;;;;;13.47;13.10;;;18.50;99.90;;;;;;4978472;28;20494;-82
2023/09/19 00:38:52;;;;;;;13.40;13.10;;;18.60;99.90;;;;;;4986856;28;20537;-81
2023/09/19 00:41:30;;;;;;;13.40;13.00;;;18.50;1.00;;;;;;4963137;28;20456;-81
2023/09/19 00:43:59;;;;;;;13.50;13.20;;;18.30;99.90;;;;;;4962751;28;20451;-81
2023/09/19 00:46:28;;;;;;;13.87;13.47;;;18.40;8.20;;;;;;4960494;28;21000;-81
2023/09/19 00:48:58;;;;;;;13.67;13.17;;;18.40;99.90;;;;;;4961674;28;20985;-81
2023/09/19 00:51:27;;;;;;;13.60;13.20;;;18.50;78.70;;;;;;4956676;28;20467;-81
2023/09/19 00:53:56;;;;;;;13.50;13.20;;;18.40;99.90;;;;;;4960507;28;20558;-82
2023/09/19 00:56:24;;;;;;;14.00;13.60;;;18.50;99.90;;;;;;4960405;28;20482;-81
2023/09/19 00:58:53;;;;;;;13.83;13.50;;;18.50;1.00;;;;;;4961823;28;20495;-79
2023/09/19 01:01:21;;;;;;;13.70;13.40;;;18.60;1.00;;;;;;4945844;28;20462;-80
2023/09/19 01:03:50;;;;;;;13.87;13.37;;;18.60;99.90;;;;;;4959961;28;20456;-83
2023/09/19 01:06:21;;;;;;;14.07;13.57;;;18.60;99.90;;;;;;4959694;28;20511;-81
2023/09/19 01:08:49;;;;;;;13.10;12.80;;;18.50;99.90;;;;;;4960860;28;20506;-81
2023/09/19 01:11:28;;;;;;;13.20;12.90;;;18.50;99.90;;;;;;4950884;28;20487;-80
2023/09/19 01:14:03;;;;;;;13.40;13.10;;;18.50;99.90;;;;;;4961062;28;20462;-83
2023/09/19 01:16:39;;;;;;;13.70;13.30;;;18.50;99.90;;;;;;4950086;28;20492;-81
2023/09/19 01:19:39;;;;;;;13.53;13.23;;;18.50;1.00;;;;;;4961906;28;21061;-85
2023/09/19 01:22:18;;;;;;;13.50;13.20;;;18.50;99.90;;;;;;4962268;28;20616;-83
2023/09/19 01:25:19;;;;;;;14.17;13.67;;;18.60;99.90;;;;;;4961279;28;20491;-82
2023/09/19 01:28:16;;;;;;;13.40;13.00;;;18.60;95.40;;;;;;4955789;28;20678;-82
2023/09/19 01:30:48;;;;;;;13.50;13.20;;;18.60;99.90;;;;;;4942690;28;20488;-84
2023/09/19 01:33:16;;;;;;;13.50;13.10;;;18.60;89.30;;;;;;4963946;28;20452;-81
2023/09/19 01:35:45;;;;;;;13.50;13.10;;;18.70;1.00;;;;;;4958993;28;20471;-82
2023/09/19 01:38:14;;;;;;;13.57;13.17;;;18.60;1.00;;;;;;4943635;28;20466;-81
2023/09/19 01:40:44;;;;;;;13.50;13.20;;;18.70;1.00;;;;;;4960859;28;20477;-82
2023/09/19 01:43:20;;;;;;;13.50;13.10;;;18.70;1.00;;;;;;4963737;28;20467;-82
2023/09/19 01:46:00;;;;;;;13.53;13.13;;;18.70;99.90;;;;;;4959042;28;21060;-80
2023/09/19 01:48:40;;;;;;;13.57;13.20;;;18.70;19.40;;;;;;4960364;28;20484;-78
2023/09/19 01:51:10;;;;;;;13.80;13.40;;;18.60;94.00;;;;;;4959262;28;20492;-82
2023/09/19 01:53:43;;;;;;;13.50;13.20;;;18.70;99.90;;;;;;4961265;28;20954;-81
2023/09/19 01:56:29;;;;;;;13.60;13.30;;;18.70;1.00;;;;;;4961116;28;20483;-85
2023/09/19 01:59:00;;;;;;;13.80;13.40;;;18.50;99.90;;;;;;4960195;28;20471;-82
2023/09/19 02:01:30;;;;;;;13.57;13.27;;;18.50;99.90;;;;;;4961103;28;20560;-81
2023/09/19 02:03:59;;;;;;;14.07;13.67;;;18.50;99.90;;;;;;4958703;28;20553;-82
2023/09/19 02:06:27;;;;;;;13.83;13.47;;;18.50;99.90;;;;;;4958104;28;20511;-81
2023/09/19 02:08:56;;;;;;;14.00;13.50;;;18.60;99.90;;;;;;4964837;28;20624;-80
2023/09/19 02:11:24;;;;;;;13.70;13.30;;;18.60;19.20;;;;;;4961256;28;20550;-81
2023/09/19 02:13:54;;;;;;;13.87;13.30;;;18.60;56.40;;;;;;4960682;28;20460;-84
2023/09/19 02:16:22;;;;;;;13.40;13.10;;;18.50;99.90;;;;;;4962313;28;20471;-81
2023/09/19 02:18:52;;;;;;;13.80;13.40;;;18.50;2.40;;;;;;4955127;28;20455;-80
2023/09/19 02:21:21;;;;;;;13.97;13.53;;;18.50;99.90;;;;;;4953964;28;21431;-81
2023/09/19 02:23:51;;;;;;;13.60;13.20;;;18.50;99.90;;;;;;4963196;28;20523;-83
2023/09/19 02:26:19;;;;;;;13.90;13.30;;;18.40;28.20;;;;;;4960583;28;20472;-84
2023/09/19 02:28:47;;;;;;;13.90;13.50;;;18.40;99.90;;;;;;4958230;28;20512;-81
2023/09/19 02:31:16;;;;;;;13.70;13.20;;;18.40;99.90;;;;;;4957268;28;20536;-84
2023/09/19 02:33:46;;;;;;;13.60;13.30;;;18.50;99.90;;;;;;4960885;28;20459;-80
2023/09/19 02:36:17;;;;;;;13.50;13.20;;;18.40;99.90;;;;;;4954520;28;21082;-83
2023/09/19 02:38:45;;;;;;;13.80;13.43;;;18.40;99.90;;;;;;4959154;28;20459;-82
2023/09/19 02:41:14;;;;;;;13.43;13.13;;;18.40;1.00;;;;;;4959565;28;20480;-80
2023/09/19 02:43:42;;;;;;;14.07;13.67;;;18.40;99.90;;;;;;4959382;28;20459;-81
2023/09/19 02:46:11;;;;;;;14.17;13.67;;;18.40;1.00;;;;;;4956695;28;20469;-80
2023/09/19 02:48:40;;;;;;;13.70;13.40;;;18.40;99.90;;;;;;4939541;28;20532;-82
2023/09/19 02:51:08;;;;;;;14.53;14.07;;;18.30;1.00;;;;;;4957371;28;20480;-78
2023/09/19 02:53:38;;;;;;;13.97;13.57;;;18.30;35.20;;;;;;4963037;28;20464;-84
2023/09/19 02:56:07;;;;;;;13.77;13.37;;;18.30;1.00;;;;;;4943514;28;20491;-84
2023/09/19 02:58:35;;;;;;;13.93;13.60;;;18.30;1.00;;;;;;4957058;28;20483;-79
2023/09/19 03:01:11;;;;;;;14.17;13.77;;;18.20;1.00;;;;;;4958660;28;20502;-82
2023/09/19 03:03:40;;;;;;;13.50;13.20;;;18.20;1.00;;;;;;4955331;28;20467;-82
2023/09/19 03:06:09;;;;;;;14.07;13.67;;;18.20;1.00;;;;;;4954799;28;20908;-83
2023/09/19 03:08:39;;;;;;;13.87;13.47;;;18.30;99.90;;;;;;4957015;28;21106;-81
2023/09/19 03:11:12;;;;;;;13.83;13.43;;;18.30;1.00;;;;;;4956953;28;20478;-80
2023/09/19 03:13:49;;;;;;;13.80;13.40;;;18.40;1.00;;;;;;4956924;28;20471;-80
2023/09/19 03:16:18;;;;;;;14.20;13.80;;;18.40;99.90;;;;;;4963328;28;20550;-83
2023/09/19 03:18:47;;;;;;;14.30;13.90;;;18.40;1.00;;;;;;4952419;28;20464;-81
2023/09/19 03:21:16;;;;;;;13.90;13.60;;;18.40;99.90;;;;;;4953913;28;20558;-81
2023/09/19 03:23:46;;;;;;;13.80;13.43;;;18.30;1.00;;;;;;4955638;28;21156;-81
2023/09/19 03:26:15;;;;;;;14.03;13.70;;;18.30;1.00;;;;;;4956624;28;20480;-81
2023/09/19 03:28:45;;;;;;;14.00;13.60;;;18.30;1.00;;;;;;4959737;28;20482;-83
2023/09/19 03:31:14;;;;;;;14.80;14.37;;;18.30;1.00;;;;;;4960281;28;20494;-83
2023/09/19 03:33:42;;;;;;;14.00;13.70;;;18.40;99.90;;;;;;4958574;28;20452;-79
2023/09/19 03:36:11;;;;;;;14.00;13.70;;;18.40;99.90;;;;;;4956893;28;20468;-82
2023/09/19 03:38:40;;;;;;;14.40;14.00;;;18.40;1.00;;;;;;4961539;28;20459;-81
2023/09/19 03:41:14;;;;;;;14.20;13.80;;;18.30;1.00;;;;;;4954716;28;20853;-81
2023/09/19 03:43:42;;;;;;;14.30;13.90;;;18.40;1.00;;;;;;4957513;28;21069;-80
2023/09/19 03:46:12;;;;;;;14.20;13.80;;;18.30;99.90;;;;;;4959956;28;20456;-81
2023/09/19 03:48:41;;;;;;;14.50;14.10;;;18.30;99.90;;;;;;4956941;28;20939;-81
2023/09/19 03:51:10;;;;;;;14.20;13.80;;;18.30;99.90;;;;;;4957443;28;20494;-79
2023/09/19 03:53:38;;;;;;;14.47;13.97;;;18.30;99.90;;;;;;4958988;28;20547;-82
2023/09/19 03:56:08;;;;;;;14.80;14.40;;;18.30;1.00;;;;;;4952623;28;20456;-83
2023/09/19 03:59:21;;;;;;;14.20;13.70;;;18.30;1.00;;;;;;4955404;28;20522;-81
2023/09/19 04:02:21;;;;;;;14.60;14.00;;;18.30;1.00;;;;;;4952697;28;20461;-81
2023/09/19 04:09:31;;;;;;;13.70;13.40;;;18.20;1.00;;;;;;4969938;28;20443;-82
2023/09/19 04:13:10;;;;;;;14.97;14.50;;;18.10;99.90;;;;;;4891014;29;20482;-82
2023/09/19 04:16:38;;;;;;;14.33;13.90;;;18.10;1.00;;;;;;4879506;29;20479;-83
2023/09/19 04:23:17;;;;;;;14.57;13.97;;;18.20;99.90;;;;;;4905307;29;20465;-83
2023/09/19 04:26:57;;;;;;;14.83;14.37;;;18.10;1.00;;;;;;4898476;29;20459;-82
2023/09/19 04:30:22;;;;;;;14.60;14.20;;;18.00;99.90;;;;;;4887244;29;20497;-82
2023/09/19 04:33:06;;;;;;;14.73;14.33;;;18.10;1.00;;;;;;4904666;29;20550;-78
2023/09/19 04:39:01;;;;;;;14.40;14.00;;;18.10;99.90;;;;;;4893660;29;20477;-75
2023/09/19 04:41:30;;;;;;;14.33;13.93;;;18.20;1.00;;;;;;4892591;29;20538;-77
2023/09/19 04:43:58;;;;;;;14.87;14.37;;;18.20;1.00;;;;;;4892919;29;20466;-77
2023/09/19 04:46:26;;;;;;;14.60;14.20;;;18.20;1.00;;;;;;4894732;29;20831;-82
2023/09/19 04:48:59;;;;;;;14.47;14.07;;;18.30;99.90;;;;;;4925826;28;20479;-83
2023/09/19 04:51:30;;;;;;;15.27;14.77;;;18.10;1.00;;;;;;4952831;28;20827;-83
2023/09/19 04:53:59;;;;;;;15.20;14.70;;;18.10;99.90;;;;;;4961120;28;20814;-82
2023/09/19 04:56:32;;;;;;;14.67;14.27;;;18.10;99.90;;;;;;4956966;28;20465;-80
2023/09/19 04:59:01;;;;;;;15.70;15.20;;;18.10;99.90;;;;;;4958756;28;20876;-80
2023/09/19 05:01:29;;;;;;;16.43;15.80;;;18.10;99.90;;;;;;4955830;28;20605;-79
2023/09/19 05:03:59;;;;;;;14.83;14.37;;;18.10;99.90;;;;;;4958152;28;20461;-80
2023/09/19 05:06:27;;;;;;;14.67;14.27;;;18.10;99.90;;;;;;4941378;28;20460;-80
2023/09/19 05:08:55;;;;;;;15.67;15.07;;;18.10;1.00;;;;;;4956270;28;20955;-79
2023/09/19 05:11:33;;;;;;;14.60;14.20;;;18.20;45.80;;;;;;4948344;28;20475;-79
2023/09/19 05:14:12;;;;;;;14.80;14.40;;;18.00;99.90;;;;;;4950549;28;20467;-81
2023/09/19 05:16:48;;;;;;;15.00;14.50;;;18.00;1.00;;;;;;4947630;28;20552;-80
2023/09/19 05:19:32;;;;;;;14.67;14.27;;;18.00;1.00;;;;;;4949405;28;20480;-82
2023/09/19 05:22:20;;;;;;;15.17;14.37;;;18.00;1.00;;;;;;4936010;28;20485;-78
2023/09/19 05:25:15;;;;;;;15.50;15.00;;;18.00;1.00;;;;;;4950586;28;20452;-78
2023/09/19 05:28:00;;;;;;;15.63;15.13;;;17.90;1.00;;;;;;4956790;28;21007;-80
2023/09/19 05:30:47;;;;;;;15.10;14.60;;;18.00;45.20;;;;;;4957681;28;20520;-80
2023/09/19 05:33:40;;;;;;;15.20;14.60;;;18.00;1.00;;;;;;4958456;28;20464;-80
2023/09/19 05:37:02;;;;;;;15.63;14.70;;;18.00;36.40;;;;;;4956733;28;20542;-79
2023/09/19 05:39:58;;;;;;;15.10;14.50;;;17.90;1.00;;;;;;4964317;28;20479;-79
2023/09/19 05:42:26;;;;;;;15.13;14.63;;;18.00;1.00;;;;;;4955555;28;20666;-80
2023/09/19 05:44:58;;;;;;;15.00;14.50;;;18.00;31.20;;;;;;4951748;28;20535;-81
2023/09/19 05:47:28;;;;;;;15.10;14.60;;;17.90;99.90;;;;;;4959778;28;20456;-80
2023/09/19 05:49:59;;;;;;;14.77;14.27;;;17.90;44.80;;;;;;4941010;28;21147;-81
2023/09/19 05:52:30;;;;;;;15.37;14.90;;;17.80;1.00;;;;;;4958933;28;20503;-80
2023/09/19 05:55:01;;;;;;;15.40;14.80;;;17.80;99.90;;;;;;4955622;28;20830;-81
2023/09/19 05:57:32;;;;;;;15.40;14.90;;;17.80;1.00;;;;;;4961381;28;20546;-80
2023/09/19 06:00:01;;;;;;;15.67;15.10;;;17.90;1.00;;;;;;4963591;28;20476;-82
2023/09/19 06:02:30;;;;;;;15.57;15.07;;;17.90;99.90;;;;;;4960933;28;20465;-81
2023/09/19 06:04:59;;;;;;;15.83;15.33;;;17.90;99.90;;;;;;4957139;28;20530;-81
2023/09/19 06:07:36;;;;;;;15.77;15.27;;;17.90;36.50;;;;;;4944465;28;20460;-80
2023/09/19 06:10:09;;;;;;;15.73;15.23;;;18.00;35.70;;;;;;4958298;28;20480;-84
2023/09/19 06:12:40;;;;;;;15.60;15.03;;;18.00;99.90;;;;;;4956806;28;20984;-81
2023/09/19 06:15:14;;;;;;;15.33;14.80;;;17.90;44.30;;;;;;4957386;28;20505;-81
2023/09/19 06:17:45;;;;;;;15.50;15.00;;;17.90;99.90;;;;;;4954808;28;20465;-83
2023/09/19 06:20:16;;;;;;;15.43;14.93;;;17.90;1.00;;;;;;4965582;28;20984;-81
2023/09/19 06:22:48;;;;;;;15.30;14.80;;;17.90;1.00;;;;;;4943937;28;20463;-82
2023/09/19 06:25:20;;;;;;;15.20;14.80;;;17.90;99.90;;;;;;4960301;28;20468;-80
2023/09/19 06:27:52;;;;;;;15.37;14.90;;;17.90;99.90;;;;;;4960431;28;20656;-82
2023/09/19 06:30:23;;;;;;;16.00;15.40;;;17.90;1.00;;;;;;4959312;28;20524;-81
2023/09/19 06:32:58;;;;;;;15.50;15.00;;;18.00;1.00;;;;;;4958578;28;20519;-81
2023/09/19 06:35:30;;;;;;;15.40;14.90;;;18.00;99.90;;;;;;4958074;28;20468;-82
2023/09/19 06:38:02;;;;;;;15.30;14.80;;;18.10;99.90;;;;;;4963831;28;20899;-80
2023/09/19 06:40:31;;;;;;;15.37;14.87;;;18.10;15.90;;;;;;4956910;28;20476;-82
2023/09/19 06:43:02;;;;;;;15.87;15.37;;;18.20;99.90;;;;;;4963125;28;20518;-83
2023/09/19 06:45:31;;;;;;;15.20;14.70;;;18.20;99.90;;;;;;4962229;28;20502;-84
2023/09/19 06:48:00;;;;;;;15.77;15.27;;;18.30;99.90;;;;;;4957223;28;20531;-83
2023/09/19 06:50:31;;;;;;;15.63;15.03;;;18.30;99.90;;;;;;4957875;28;20543;-82
2023/09/19 06:53:41;;;;;;;15.60;15.10;;;18.30;99.90;;;;;;4961115;28;20488;-83
2023/09/19 06:56:32;;;;;;;15.73;15.23;;;18.30;96.50;;;;;;4962111;28;20508;-81
2023/09/19 07:02:43;;;;;;;15.37;14.83;;;18.50;99.90;;;;;;4956712;28;20983;-82
2023/09/19 07:05:48;;;;;;;15.30;14.90;;;18.50;1.00;;;;;;4952469;28;20812;-82
2023/09/19 07:08:40;;;;;;;15.20;14.70;;;18.50;99.90;;;;;;4968107;28;20467;-81
2023/09/19 07:11:30;;;;;;;15.30;14.80;;;18.50;1.00;;;;;;4958137;28;20487;-80
2023/09/19 07:14:48;;;;;;;16.07;15.30;;;18.50;99.90;;;;;;4961788;28;20470;-82
2023/09/19 07:21:22;;;;;;;15.20;14.80;;;18.70;99.90;;;;;;4963079;28;20471;-84
2023/09/19 07:24:42;;;;;;;16.27;15.40;;;18.80;99.90;;;;;;4945647;28;20546;-80
2023/09/19 07:30:28;;;;;;;15.07;14.67;;;18.80;90.70;;;;;;4919449;28;20716;-80
2023/09/19 07:33:28;;;;;;;15.13;14.53;;;18.90;30.70;;;;;;4962473;28;20483;-80
2023/09/19 07:36:24;;;;;;;15.90;15.20;;;18.90;1.00;;;;;;4941795;28;20529;-81
2023/09/19 07:42:50;;;;;;;15.03;14.63;;;19.10;1.00;;;;;;4961953;28;20448;-80
2023/09/19 07:52:22;;;;;;;16.30;15.70;;;19.50;1.00;;;;;;4967304;28;20487;-83
2023/09/19 07:55:29;;;;;;;16.17;15.60;;;19.70;1.00;;;;;;4966287;28;20465;-81
2023/09/19 08:01:57;;;;;;;15.60;15.10;;;20.00;99.90;;;;;;4956472;28;20464;-80
2023/09/19 08:07:59;;;;;;;15.70;15.13;;;20.50;1.00;;;;;;4962697;28;20513;-81
2023/09/19 08:10:57;;;;;;;17.27;16.57;;;20.70;1.00;;;;;;4966127;28;20485;-82
2023/09/19 08:17:25;;;;;;;15.33;14.90;;;21.00;1.00;;;;;;4959403;28;20519;-82
2023/09/19 08:20:16;;;;;;;15.47;15.00;;;21.10;1.00;;;;;;4964602;28;21056;-81
2023/09/19 08:23:12;;;;;;;15.40;14.90;;;21.20;1.00;;;;;;4963305;28;20460;-83
2023/09/19 08:29:27;;;;;;;15.67;15.10;;;21.30;1.00;;;;;;4958318;28;20530;-81
2023/09/19 08:32:28;;;;;;;15.50;15.00;;;21.40;1.00;;;;;;4961359;28;20995;-81
2023/09/19 08:35:16;;;;;;;15.00;14.50;;;21.40;99.90;;;;;;4960275;28;20523;-82
2023/09/19 08:37:57;;;;;;;15.67;15.07;;;21.20;99.90;;;;;;4945751;28;20464;-81
2023/09/19 08:41:14;;;;;;;15.13;14.70;;;21.30;99.90;;;;;;4918737;29;20485;-81
2023/09/19 08:43:54;;;;;;;15.10;14.60;;;21.30;99.90;;;;;;4921803;29;21078;-83
2023/09/19 08:46:57;;;;;;;15.13;14.73;;;21.10;99.90;;;;;;4921841;29;20544;-81
2023/09/19 08:49:53;;;;;;;15.07;14.67;;;21.10;99.90;;;;;;4914220;29;20604;-82
2023/09/19 08:52:46;;;;;;;15.40;14.80;;;21.20;99.90;;;;;;4923644;29;20481;-81
2023/09/19 08:59:07;;;;;;;15.20;14.80;;;21.50;99.90;;;;;;4925354;29;20544;-83
2023/09/19 09:09:26;;;;;;;16.07;15.50;;;21.60;99.90;;;;;;4912020;29;20473;-82
2023/09/19 09:15:38;;;;;;;16.10;15.60;;;21.90;99.90;;;;;;4908241;29;20493;-81
2023/09/19 09:18:28;;;;;;;15.53;15.03;;;21.80;99.90;;;;;;4954882;28;20457;-82
2023/09/19 09:21:11;;;;;;;15.67;14.97;;;21.70;99.90;;;;;;4962889;28;20479;-83
2023/09/19 09:23:49;;;;;;;15.00;14.60;;;22.10;99.90;;;;;;4966148;28;20469;-80
2023/09/19 09:26:26;;;;;;;15.50;15.10;;;22.10;99.90;;;;;;4963905;28;21001;-81
2023/09/19 09:29:00;;;;;;;15.23;14.83;;;22.40;99.90;;;;;;4960975;28;20464;-81
2023/09/19 09:34:44;;;;;;;15.43;15.03;;;22.60;99.90;;;;;;4956524;28;20850;-80
2023/09/19 09:37:47;;;;;;;15.40;14.70;;;22.60;99.90;;;;;;4948657;28;20463;-83
2023/09/19 09:40:58;;;;;;;14.43;14.03;;;22.60;99.90;;;;;;4961905;28;21004;-81
2023/09/19 09:43:48;;;;;;;14.93;14.53;;;22.70;99.90;;;;;;4963593;28;20467;-81
2023/09/19 09:49:33;;;;;;;15.20;14.60;;;22.60;99.90;;;;;;4913019;29;20581;-79
2023/09/19 09:52:31;;;;;;;15.10;14.60;;;22.70;99.90;;;;;;4909859;29;20470;-81
2023/09/19 09:55:07;;;;;;;19.53;18.17;;;22.50;99.90;;;;;;4943938;28;20501;-83
2023/09/19 09:57:45;;;;;;;15.57;15.07;;;22.60;99.90;;;;;;4959487;28;20462;-82
2023/09/19 10:00:42;;;;;;;15.00;14.60;;;22.80;99.90;;;;;;4960010;28;20486;-80
2023/09/19 10:03:30;;;;;;;15.20;14.70;;;22.90;99.90;;;;;;4964906;28;20922;-81
2023/09/19 10:06:47;;;;;;;15.53;15.03;;;22.70;99.90;;;;;;4962740;28;20453;-79
2023/09/19 10:09:29;;;;;;;15.70;15.07;;;22.80;99.90;;;;;;4959422;28;20988;-80
2023/09/19 10:12:14;;;;;;;15.00;14.50;;;22.80;99.90;;;;;;4964086;28;20503;-81
2023/09/19 10:14:59;;;;;;;14.23;13.83;;;22.80;99.90;;;;;;4965008;28;20468;-84
2023/09/19 10:17:47;;;;;;;15.10;14.60;;;22.90;99.90;;;;;;4969507;28;20804;-79
2023/09/19 10:23:22;;;;;;;15.50;14.70;;;23.20;99.90;;;;;;4962050;28;20461;-81
2023/09/19 10:25:58;;;;;;;14.80;14.30;;;23.20;99.90;;;;;;4964557;28;20464;-78
2023/09/19 10:28:40;;;;;;;14.50;14.10;;;23.30;99.90;;;;;;4963279;28;20933;-79
2023/09/19 10:31:16;;;;;;;14.40;13.80;;;23.30;99.90;;;;;;4960850;28;20872;-81
2023/09/19 10:33:50;;;;;;;14.60;14.10;;;23.50;99.90;;;;;;4959146;28;20559;-80
2023/09/19 10:36:44;;;;;;;14.20;13.80;;;23.50;99.90;;;;;;4946369;28;20448;-80
2023/09/19 10:39:22;;;;;;;13.60;13.20;;;23.20;99.90;;;;;;4963452;28;20460;-80
2023/09/19 10:42:17;;;;;;;13.93;13.50;;;23.20;99.90;;;;;;4958152;28;20551;-81
2023/09/19 10:44:55;;;;;;;14.30;13.90;;;23.20;99.90;;;;;;4962432;28;20455;-82
2023/09/19 10:47:29;;;;;;;15.23;14.73;;;23.10;99.90;;;;;;4960214;28;20454;-79
2023/09/19 10:50:10;;;;;;;15.10;14.67;;;23.20;99.90;;;;;;4966943;28;20656;-81
2023/09/19 10:53:04;;;;;;;14.37;13.97;;;23.40;99.90;;;;;;4952960;28;20490;-81
2023/09/19 10:55:51;;;;;;;14.70;14.30;;;23.50;99.90;;;;;;4960276;28;20586;-80
2023/09/19 10:58:56;;;;;;;15.23;14.73;;;23.60;99.90;;;;;;4957982;28;20452;-80
2023/09/19 11:01:47;;;;;;;14.90;14.50;;;23.90;99.90;;;;;;4957110;28;20849;-80
2023/09/19 11:04:27;;;;;;;14.77;14.37;;;24.00;99.90;;;;;;4958215;28;20803;-79
2023/09/19 11:07:16;;;;;;;14.60;14.20;;;23.90;99.90;;;;;;4958550;28;20448;-79
2023/09/19 11:09:58;;;;;;;14.40;14.00;;;23.70;99.90;;;;;;4960866;28;20513;-79
2023/09/19 11:12:55;;;;;;;14.90;14.50;;;23.70;99.90;;;;;;4959166;28;20467;-79
2023/09/19 11:16:08;;;;;;;14.33;13.77;;;23.80;99.90;;;;;;4956549;28;20475;-85
2023/09/19 11:19:07;;;;;;;15.03;14.63;;;23.80;99.90;;;;;;4931434;28;20507;-80
2023/09/19 11:21:55;;;;;;;14.27;13.97;;;23.90;99.90;;;;;;4948622;28;20465;-82
2023/09/19 11:24:41;;;;;;;14.07;13.67;;;23.60;99.90;;;;;;4955179;28;21025;-82
2023/09/19 11:27:34;;;;;;;14.03;13.70;;;23.50;99.90;;;;;;4961680;28;20544;-83
2023/09/19 11:30:32;;;;;;;14.50;13.90;;;23.50;99.90;;;;;;4944704;28;20516;-83
2023/09/19 11:33:27;;;;;;;14.37;13.93;;;23.60;99.90;;;;;;4955715;28;21017;-83
2023/09/19 11:36:28;;;;;;;14.07;13.70;;;23.60;99.90;;;;;;4960860;28;20496;-79
2023/09/19 11:39:29;;;;;;;14.23;13.80;;;23.60;99.90;;;;;;4944270;28;20464;-81
2023/09/19 11:42:53;;;;;;;13.70;13.40;;;23.60;99.90;;;;;;4961605;28;20456;-85
2023/09/19 11:49:33;;;;;;;14.23;13.83;;;23.40;99.90;;;;;;4949758;28;20459;-82
2023/09/19 11:52:13;;;;;;;14.10;13.80;;;23.50;99.90;;;;;;4946370;28;20460;-80
2023/09/19 11:54:58;;;;;;;14.00;13.70;;;23.60;99.90;;;;;;4966690;28;20491;-82
2023/09/19 11:57:42;;;;;;;14.73;14.33;;;23.60;99.90;;;;;;4966157;28;20468;-82
2023/09/19 12:00:27;;;;;;;15.77;14.70;;;23.50;99.90;;;;;;4967027;28;21181;-84
2023/09/19 12:07:18;;;;;;;14.60;14.10;;;23.70;99.90;;;;;;4967049;28;20448;-80
2023/09/19 12:10:21;;;;;;;14.10;13.70;;;23.80;99.90;;;;;;4966529;28;20557;-82
2023/09/19 12:13:00;;;;;;;14.97;14.30;;;23.70;99.90;;;;;;4966788;28;20455;-83
2023/09/19 12:16:00;;;;;;;14.47;14.07;;;23.70;99.90;;;;;;4963669;28;20507;-82
2023/09/19 12:37:20;;;;;;;14.53;14.13;;;23.60;99.90;;;;;;4933137;28;20474;-80
2023/09/19 12:40:17;;;;;;;15.17;14.67;;;23.70;99.90;;;;;;4939372;29;20472;-83
2023/09/19 12:42:53;;;;;;;14.30;14.00;;;23.70;99.90;;;;;;4935319;29;20529;-80
2023/09/19 12:45:31;;;;;;;14.70;14.30;;;23.60;99.90;;;;;;4942515;28;20549;-81
2023/09/19 12:48:22;;;;;;;15.80;14.87;;;23.30;99.90;;;;;;4939812;29;20974;-82
2023/09/19 12:51:10;;;;;;;15.20;14.63;;;23.20;99.90;;;;;;4927464;29;20465;-78
2023/09/19 12:54:06;;;;;;;14.60;14.30;;;23.40;99.90;;;;;;4931447;29;20480;-82
2023/09/19 12:56:48;;;;;;;15.30;14.90;;;23.30;99.90;;;;;;4935972;29;20460;-81
2023/09/19 12:59:36;;;;;;;15.43;14.93;;;23.30;99.90;;;;;;4938693;29;21039;-80
2023/09/19 13:02:18;;;;;;;14.80;14.30;;;23.50;99.90;;;;;;4935963;29;20449;-83
2023/09/19 13:05:25;;;;;;;15.30;14.87;;;23.50;99.90;;;;;;4938677;29;20516;-80
2023/09/19 13:24:52;;;;;;;14.87;14.37;;;23.20;99.90;;;;;;4853559;29;20990;-82
2023/09/19 13:27:57;;;;;;;14.60;14.20;;;23.40;99.90;;;;;;4855139;29;20534;-81
2023/09/19 13:33:57;;;;;;;14.70;14.10;;;23.40;99.90;;;;;;4929402;29;20500;-81
2023/09/19 13:37:04;;;;;;;14.43;14.03;;;23.40;99.90;;;;;;4929827;28;21334;-81
2023/09/19 13:39:57;;;;;;;14.27;13.53;;;23.50;99.90;;;;;;4925828;29;20544;-81
2023/09/19 13:43:09;;;;;;;14.90;14.30;;;23.50;99.90;;;;;;4943062;28;20463;-81
2023/09/19 13:46:25;;;;;;;13.80;13.50;;;23.30;99.90;;;;;;4931664;29;20536;-79
2023/09/19 13:55:03;;;;;;;13.90;13.53;;;23.30;99.90;;;;;;4933279;28;21281;-79
2023/09/19 13:57:55;;;;;;;16.97;16.37;;;23.20;99.90;;;;;;4938229;28;20454;-84
2023/09/19 14:00:35;;;;;;;14.10;13.80;;;23.30;99.90;;;;;;4934758;29;20473;-80
2023/09/19 14:03:04;;;;;;;14.52;13.98;;;23.40;99.90;;;;;;4931836;29;20481;-80
2023/09/19 14:05:33;;;;;;;13.73;13.20;;;23.40;99.90;;;;;;4931250;29;20206;-81
2023/09/19 14:08:03;;;;;;;13.50;13.10;;;23.30;99.90;;;;;;4933867;28;20514;-82
2023/09/19 14:10:32;;;;;;;12.90;12.60;;;23.40;99.90;;;;;;4937357;29;20469;-83
2023/09/19 14:13:12;;;;;;;11.90;11.30;;;23.40;99.90;;;;;;4928933;29;20462;-79
2023/09/19 14:16:02;;;;;;;11.30;11.00;;;23.40;99.90;;;;;;4929687;29;20508;-79
2023/09/19 14:18:51;;;;;;;12.07;11.77;;;23.50;99.90;;;;;;4928318;29;20465;-81
2023/09/19 14:21:54;;;;;;;12.03;11.73;;;23.50;99.90;;;;;;4936033;28;20486;-81
2023/09/19 14:25:06;;;;;;;11.80;11.50;;;23.50;99.90;;;;;;4924113;28;20464;-82
2023/09/19 14:28:19;;;;;;;12.00;11.70;;;23.50;99.90;;;;;;4923438;28;20473;-83
2023/09/19 14:30:59;;;;;;;12.00;11.60;;;23.50;99.90;;;;;;5115173;23;20556;-82
2023/09/19 14:42:02;;;;;;;11.33;11.10;;;23.50;99.90;;;;;;4929936;29;20488;-79
2023/09/19 14:44:53;;;;;;;12.30;12.00;;;23.40;99.90;;;;;;4928493;29;20622;-79
2023/09/19 14:47:37;;;;;;;11.23;10.93;;;23.30;99.90;;;;;;4942695;28;20535;-79
2023/09/19 14:50:37;;;;;;;11.30;11.00;;;23.40;99.90;;;;;;4970344;28;20842;-79
2023/09/19 14:53:38;;;;;;;11.13;10.83;;;23.50;99.90;;;;;;4970397;28;20977;-82
2023/09/19 14:57:03;;;;;;;10.77;10.33;;;23.50;99.90;;;;;;4973959;28;20456;-79
2023/09/19 15:00:45;;;;;;;10.53;10.33;;;23.60;99.90;;;;;;4977789;28;20487;-81
2023/09/19 15:04:03;;;;;;;11.93;11.43;;;23.40;99.90;;;;;;4973422;28;20463;-80
2023/09/19 15:06:49;;;;;;;11.53;11.23;;;23.30;99.90;;;;;;4971002;28;20483;-81
2023/09/19 15:09:45;;;;;;;12.20;11.90;;;23.30;99.90;;;;;;4969336;28;20460;-81
2023/09/19 15:12:58;;;;;;;11.90;11.60;;;23.20;99.90;;;;;;4969801;28;20458;-82
2023/09/19 15:19:57;;;;;;;12.80;12.40;;;23.10;99.90;;;;;;4967398;28;20536;-83
2023/09/19 15:26:04;;;;;;;11.73;11.43;;;23.30;99.90;;;;;;4965274;28;20467;-79
2023/09/19 15:28:49;;;;;;;12.00;11.60;;;23.30;99.90;;;;;;4988061;28;20558;-81
2023/09/19 15:31:39;;;;;;;12.20;11.70;;;23.30;99.90;;;;;;4973022;28;20492;-81
2023/09/19 15:34:15;;;;;;;12.00;11.70;;;23.20;99.90;;;;;;4972073;28;20470;-79
2023/09/19 15:41:28;;;;;;;11.60;11.30;;;23.20;99.90;;;;;;4930995;28;20542;-79
2023/09/19 15:44:23;;;;;;;11.80;11.40;;;23.10;99.90;;;;;;4963370;28;20502;-82
2023/09/19 15:47:53;;;;;;;12.23;11.93;;;23.10;99.90;;;;;;4973441;28;20462;-81
2023/09/19 15:50:47;;;;;;;12.20;11.90;;;22.90;99.90;;;;;;4976306;28;20485;-80
2023/09/19 15:53:25;;;;;;;11.97;11.67;;;23.00;99.90;;;;;;4972595;28;20505;-81
2023/09/19 15:56:20;;;;;;;12.07;11.77;;;23.00;99.90;;;;;;4972566;28;20586;-82
2023/09/19 15:59:52;;;;;;;12.00;11.80;;;23.00;99.90;;;;;;4970492;28;20494;-83
2023/09/19 16:02:50;;;;;;;12.40;12.10;;;23.00;99.90;;;;;;4972391;28;20475;-80
2023/09/19 16:05:29;;;;;;;13.40;13.00;;;23.00;99.90;;;;;;4973215;28;20455;-81
2023/09/19 16:11:38;;;;;;;12.30;12.00;;;23.10;99.90;;;;;;4969807;28;21011;-81
2023/09/19 16:14:27;;;;;;;11.93;11.73;;;23.00;99.90;;;;;;4977222;28;20472;-79
2023/09/19 16:20:19;;;;;;;12.23;11.90;;;22.90;99.90;;;;;;4976198;28;21076;-82